Time;durP1;ratioP1;P1;durP2;ratioP2;P2;SDS_P1;SDS_P2;PMS_P1;PMS_P2;Temp;Humidity;BMP_temperature;BMP_pressure;BME280_temperature;BME280_humidity;BME280_pressure;Samples;Min_cycle;Max_cycle;Signal;HPM_P1;HPM_P2
2023/12/31 00:00:52;;;;;;;20.35;11.85;;;;;;;;;;2026008;29;20484;-52
2023/12/31 00:01:53;;;;;;;15.00;8.88;;;;;;;;;;2025886;29;20049;-52
2023/12/31 00:02:53;;;;;;;17.80;10.20;;;;;;;;;;2026153;29;20055;-53
2023/12/31 00:03:54;;;;;;;15.23;9.65;;;;;;;;;;2025971;29;20127;-54
2023/12/31 00:04:55;;;;;;;19.70;10.32;;;;;;;;;;2025164;29;20052;-53
2023/12/31 00:05:56;;;;;;;17.77;10.50;;;;;;;;;;2026008;29;20127;-54
2023/12/31 00:06:56;;;;;;;18.85;11.20;;;;;;;;;;2025530;29;20060;-52
2023/12/31 00:07:57;;;;;;;17.33;11.13;;;;;;;;;;2025673;29;20060;-53
2023/12/31 00:08:58;;;;;;;17.67;11.70;;;;;;;;;;2025490;29;20049;-52
2023/12/31 00:09:58;;;;;;;17.83;11.30;;;;;;;;;;2025967;29;20063;-52
2023/12/31 00:11:00;;;;;;;18.33;10.50;;;;;;;;;;2026073;29;20488;-53
2023/12/31 00:12:01;;;;;;;19.77;11.90;;;;;;;;;;2026072;29;20044;-53
2023/12/31 00:13:01;;;;;;;16.05;10.15;;;;;;;;;;2026248;29;20040;-52
2023/12/31 00:14:02;;;;;;;16.20;9.95;;;;;;;;;;2025351;29;20103;-53
2023/12/31 00:15:04;;;;;;;15.73;9.30;;;;;;;;;;2025207;29;20076;-53
2023/12/31 00:16:05;;;;;;;20.13;11.02;;;;;;;;;;2025681;29;20474;-52
2023/12/31 00:17:05;;;;;;;19.42;10.82;;;;;;;;;;2026210;29;20037;-53
2023/12/31 00:18:06;;;;;;;18.08;11.07;;;;;;;;;;2026293;29;20488;-52
2023/12/31 00:19:07;;;;;;;20.25;11.20;;;;;;;;;;2026023;29;20052;-53
2023/12/31 00:20:08;;;;;;;20.15;10.98;;;;;;;;;;2025312;29;20049;-54
2023/12/31 00:21:08;;;;;;;19.98;11.55;;;;;;;;;;2026228;29;20072;-54
2023/12/31 00:22:09;;;;;;;23.38;12.23;;;;;;;;;;2017525;29;20049;-54
2023/12/31 00:23:11;;;;;;;18.88;11.10;;;;;;;;;;2017587;29;20044;-52
2023/12/31 00:24:12;;;;;;;19.55;10.85;;;;;;;;;;2025863;29;20057;-52
2023/12/31 00:25:13;;;;;;;20.83;11.88;;;;;;;;;;2025865;29;20093;-53
2023/12/31 00:26:14;;;;;;;18.13;10.68;;;;;;;;;;2025991;29;20124;-54
2023/12/31 00:27:14;;;;;;;19.35;10.07;;;;;;;;;;2026010;29;20075;-52
2023/12/31 00:28:15;;;;;;;19.88;11.38;;;;;;;;;;2025979;29;20036;-53
2023/12/31 00:29:16;;;;;;;20.45;10.60;;;;;;;;;;2025960;29;20037;-52
2023/12/31 00:30:17;;;;;;;16.67;10.27;;;;;;;;;;2026060;29;20048;-53
2023/12/31 00:31:18;;;;;;;16.63;9.63;;;;;;;;;;2025596;29;20450;-53
2023/12/31 00:32:19;;;;;;;17.40;10.73;;;;;;;;;;2025787;29;20039;-53
2023/12/31 00:33:19;;;;;;;17.40;10.07;;;;;;;;;;2017515;29;20614;-53
2023/12/31 00:34:20;;;;;;;16.55;8.80;;;;;;;;;;2010324;29;20422;-57
2023/12/31 00:35:22;;;;;;;16.25;9.25;;;;;;;;;;2010848;29;20042;-52
2023/12/31 00:36:24;;;;;;;17.73;10.27;;;;;;;;;;2018806;29;20033;-53
2023/12/31 00:37:25;;;;;;;15.10;9.18;;;;;;;;;;2026180;29;20037;-53
2023/12/31 00:38:26;;;;;;;16.88;9.13;;;;;;;;;;2026253;29;20036;-52
2023/12/31 00:39:26;;;;;;;13.60;9.20;;;;;;;;;;2026394;29;20060;-52
2023/12/31 00:40:27;;;;;;;17.67;10.00;;;;;;;;;;2025922;29;20489;-54
2023/12/31 00:41:28;;;;;;;15.98;8.90;;;;;;;;;;2017858;29;20041;-53
2023/12/31 00:42:29;;;;;;;15.63;8.43;;;;;;;;;;2009923;29;20045;-51
2023/12/31 00:43:31;;;;;;;15.57;9.55;;;;;;;;;;2010103;29;20550;-53
2023/12/31 00:44:32;;;;;;;16.88;10.18;;;;;;;;;;2017682;29;20049;-52
2023/12/31 00:45:35;;;;;;;19.65;11.00;;;;;;;;;;2025668;29;20044;-53
2023/12/31 00:46:36;;;;;;;16.13;10.07;;;;;;;;;;2025450;29;20033;-52
2023/12/31 00:47:38;;;;;;;14.77;9.60;;;;;;;;;;2017497;29;20437;-52
2023/12/31 00:48:38;;;;;;;14.63;9.57;;;;;;;;;;2017736;29;20041;-52
2023/12/31 00:49:39;;;;;;;15.48;9.27;;;;;;;;;;2026106;29;20048;-53
2023/12/31 00:50:40;;;;;;;16.88;9.07;;;;;;;;;;2026670;29;20069;-52
2023/12/31 00:51:41;;;;;;;15.02;9.07;;;;;;;;;;2026799;29;20048;-54
2023/12/31 00:52:41;;;;;;;18.25;10.15;;;;;;;;;;2019007;29;20044;-52
2023/12/31 00:53:42;;;;;;;15.55;10.05;;;;;;;;;;2019031;29;20481;-53
2023/12/31 00:54:43;;;;;;;14.05;9.05;;;;;;;;;;2026434;29;20517;-56
2023/12/31 00:55:43;;;;;;;17.80;10.23;;;;;;;;;;2026671;29;20045;-53
2023/12/31 00:56:44;;;;;;;16.50;10.20;;;;;;;;;;2027054;29;20477;-53
2023/12/31 00:57:45;;;;;;;14.82;9.88;;;;;;;;;;2026725;29;20477;-53
2023/12/31 00:58:46;;;;;;;17.92;10.23;;;;;;;;;;2026607;29;20052;-53
2023/12/31 00:59:47;;;;;;;16.73;10.63;;;;;;;;;;2027312;29;20053;-53
2023/12/31 01:00:48;;;;;;;17.23;10.68;;;;;;;;;;2018840;29;20041;-53
2023/12/31 01:01:50;;;;;;;16.42;9.77;;;;;;;;;;2018526;29;20178;-53
2023/12/31 01:02:51;;;;;;;18.63;11.00;;;;;;;;;;2017614;29;20442;-53
2023/12/31 01:03:52;;;;;;;16.65;10.55;;;;;;;;;;2018456;29;20410;-52
2023/12/31 01:04:53;;;;;;;15.65;10.02;;;;;;;;;;2027308;29;20037;-53
2023/12/31 01:05:55;;;;;;;17.85;9.95;;;;;;;;;;2027272;29;20036;-53
2023/12/31 01:06:56;;;;;;;16.33;10.20;;;;;;;;;;2026444;29;20049;-53
2023/12/31 01:07:57;;;;;;;19.02;11.23;;;;;;;;;;2027591;29;20043;-53
2023/12/31 01:08:59;;;;;;;18.83;11.40;;;;;;;;;;2026555;29;20059;-52
2023/12/31 01:09:59;;;;;;;19.15;11.80;;;;;;;;;;2026575;29;20081;-53
2023/12/31 01:11:00;;;;;;;17.70;10.80;;;;;;;;;;2026172;29;20041;-52
2023/12/31 01:12:01;;;;;;;15.52;9.43;;;;;;;;;;2027365;29;20059;-53
2023/12/31 01:13:02;;;;;;;18.52;11.25;;;;;;;;;;2026566;29;20473;-53
2023/12/31 01:14:03;;;;;;;18.42;11.80;;;;;;;;;;2025935;29;20059;-52
2023/12/31 01:15:04;;;;;;;17.83;10.98;;;;;;;;;;2018531;29;20052;-53
2023/12/31 01:16:05;;;;;;;16.42;10.07;;;;;;;;;;2018985;29;20045;-53
2023/12/31 01:17:05;;;;;;;18.65;10.98;;;;;;;;;;2018886;29;20084;-53
2023/12/31 01:18:06;;;;;;;18.25;10.85;;;;;;;;;;2018756;29;20036;-54
2023/12/31 01:19:07;;;;;;;15.98;10.25;;;;;;;;;;2027167;29;20456;-52
2023/12/31 01:20:08;;;;;;;18.73;10.32;;;;;;;;;;2026996;29;20462;-53
2023/12/31 01:21:09;;;;;;;19.48;10.98;;;;;;;;;;2027081;29;20059;-53
2023/12/31 01:22:09;;;;;;;16.70;10.43;;;;;;;;;;2026362;29;20067;-53
2023/12/31 01:23:11;;;;;;;17.67;10.93;;;;;;;;;;2018107;29;20049;-53
2023/12/31 01:24:12;;;;;;;16.70;10.27;;;;;;;;;;2010989;29;20045;-52
2023/12/31 01:25:14;;;;;;;16.90;10.40;;;;;;;;;;2018393;29;20049;-52
2023/12/31 01:26:14;;;;;;;18.48;11.48;;;;;;;;;;2026460;29;20076;-53
2023/12/31 01:27:15;;;;;;;15.93;9.90;;;;;;;;;;2026380;29;20109;-52
2023/12/31 01:28:16;;;;;;;17.88;10.18;;;;;;;;;;2027457;29;20032;-52
2023/12/31 01:29:17;;;;;;;16.23;9.77;;;;;;;;;;2018104;29;20374;-53
2023/12/31 01:30:18;;;;;;;16.70;10.48;;;;;;;;;;2018963;29;20036;-52
2023/12/31 01:31:19;;;;;;;15.98;9.63;;;;;;;;;;2026944;29;20110;-54
2023/12/31 01:32:21;;;;;;;19.95;10.63;;;;;;;;;;2027256;29;20036;-52
2023/12/31 01:33:21;;;;;;;16.85;10.32;;;;;;;;;;2018916;29;20394;-52
2023/12/31 01:34:22;;;;;;;17.90;10.30;;;;;;;;;;2018662;29;20048;-53
2023/12/31 01:35:23;;;;;;;18.30;10.98;;;;;;;;;;2018556;29;20068;-53
2023/12/31 01:36:25;;;;;;;17.98;10.35;;;;;;;;;;2018317;29;20053;-53
2023/12/31 01:37:26;;;;;;;17.20;10.85;;;;;;;;;;2026894;29;20040;-53
2023/12/31 01:38:27;;;;;;;15.20;10.18;;;;;;;;;;2026290;29;20045;-52
2023/12/31 01:39:29;;;;;;;17.83;10.27;;;;;;;;;;2018520;29;20048;-53
2023/12/31 01:40:29;;;;;;;15.02;9.65;;;;;;;;;;2018573;29;20077;-52
2023/12/31 01:41:30;;;;;;;15.75;10.02;;;;;;;;;;2010997;29;20093;-53
2023/12/31 01:42:31;;;;;;;19.90;10.45;;;;;;;;;;2018615;29;20128;-52
2023/12/31 01:43:32;;;;;;;16.55;10.40;;;;;;;;;;2018285;29;20048;-53
2023/12/31 01:44:32;;;;;;;21.10;11.65;;;;;;;;;;2010003;29;20041;-52
2023/12/31 01:45:33;;;;;;;16.50;10.32;;;;;;;;;;2010624;29;20069;-53
2023/12/31 01:46:34;;;;;;;19.08;11.10;;;;;;;;;;2010038;29;20041;-53
2023/12/31 01:47:35;;;;;;;18.42;10.98;;;;;;;;;;2018210;29;20463;-53
2023/12/31 01:48:35;;;;;;;18.10;10.48;;;;;;;;;;2026817;29;20040;-53
2023/12/31 01:49:36;;;;;;;17.15;11.02;;;;;;;;;;2026063;29;20052;-52
2023/12/31 01:50:37;;;;;;;17.08;10.48;;;;;;;;;;2027062;29;20048;-53
2023/12/31 01:51:38;;;;;;;17.77;10.50;;;;;;;;;;2018425;29;20051;-53
2023/12/31 01:52:38;;;;;;;18.58;10.55;;;;;;;;;;2017862;29;20041;-54
2023/12/31 01:53:39;;;;;;;14.85;9.88;;;;;;;;;;2010224;29;20050;-53
2023/12/31 01:54:40;;;;;;;16.02;10.32;;;;;;;;;;2018283;29;20081;-53
2023/12/31 01:55:41;;;;;;;17.58;10.40;;;;;;;;;;2018323;29;20131;-53
2023/12/31 01:56:42;;;;;;;16.27;9.40;;;;;;;;;;2010024;29;20085;-53
2023/12/31 01:57:42;;;;;;;18.80;10.88;;;;;;;;;;2010161;29;20395;-52
2023/12/31 01:58:43;;;;;;;15.57;9.98;;;;;;;;;;2010733;29;20049;-53
2023/12/31 01:59:44;;;;;;;17.25;10.57;;;;;;;;;;2018380;29;20072;-54
2023/12/31 02:00:45;;;;;;;16.40;10.77;;;;;;;;;;2010554;29;20479;-54
2023/12/31 02:01:45;;;;;;;17.35;10.65;;;;;;;;;;2017777;29;20425;-53
2023/12/31 02:02:46;;;;;;;17.90;10.52;;;;;;;;;;2010581;29;20514;-53
2023/12/31 02:03:47;;;;;;;16.70;9.35;;;;;;;;;;2011084;29;20115;-53
2023/12/31 02:04:48;;;;;;;16.55;9.73;;;;;;;;;;2026997;29;20397;-54
2023/12/31 02:05:49;;;;;;;16.92;10.60;;;;;;;;;;2010307;29;20415;-52
2023/12/31 02:06:50;;;;;;;18.58;10.65;;;;;;;;;;2010451;29;20077;-53
2023/12/31 02:07:51;;;;;;;16.75;9.55;;;;;;;;;;2017648;29;20057;-52
2023/12/31 02:08:52;;;;;;;17.23;10.18;;;;;;;;;;2018366;29;20049;-53
2023/12/31 02:09:53;;;;;;;16.17;10.48;;;;;;;;;;2018042;29;20056;-53
2023/12/31 02:10:54;;;;;;;16.55;9.90;;;;;;;;;;2018557;29;20438;-53
2023/12/31 02:11:55;;;;;;;18.92;9.75;;;;;;;;;;2017647;29;20603;-52
2023/12/31 02:12:56;;;;;;;15.48;10.20;;;;;;;;;;2018514;29;20168;-52
2023/12/31 02:13:57;;;;;;;16.02;9.85;;;;;;;;;;2018559;29;20036;-53
2023/12/31 02:14:57;;;;;;;18.13;11.07;;;;;;;;;;2018483;29;20045;-52
2023/12/31 02:15:58;;;;;;;18.05;10.80;;;;;;;;;;2017911;29;20088;-52
2023/12/31 02:16:59;;;;;;;16.45;10.98;;;;;;;;;;2018341;29;20039;-52
2023/12/31 02:18:00;;;;;;;17.50;10.73;;;;;;;;;;2018015;29;20082;-52
2023/12/31 02:19:01;;;;;;;18.23;10.25;;;;;;;;;;2010871;29;20046;-53
2023/12/31 02:20:02;;;;;;;19.77;11.93;;;;;;;;;;2018263;29;20037;-53
2023/12/31 02:21:02;;;;;;;17.50;10.48;;;;;;;;;;2025603;29;20051;-52
2023/12/31 02:22:03;;;;;;;18.00;10.50;;;;;;;;;;2026451;29;20071;-54
2023/12/31 02:23:05;;;;;;;18.15;10.35;;;;;;;;;;2026657;29;20033;-52
2023/12/31 02:24:06;;;;;;;15.88;9.82;;;;;;;;;;2026603;29;20037;-54
2023/12/31 02:25:07;;;;;;;17.48;10.25;;;;;;;;;;2026663;29;20147;-52
2023/12/31 02:26:08;;;;;;;20.90;11.40;;;;;;;;;;2026293;29;20045;-53
2023/12/31 02:27:09;;;;;;;17.55;10.20;;;;;;;;;;2017949;29;20045;-53
2023/12/31 02:28:13;;;;;;;16.73;10.65;;;;;;;;;;2018278;29;20501;-53
2023/12/31 02:29:13;;;;;;;17.95;10.57;;;;;;;;;;2026518;29;20033;-53
2023/12/31 02:30:14;;;;;;;19.27;11.10;;;;;;;;;;2026678;29;20485;-52
2023/12/31 02:31:15;;;;;;;18.02;11.63;;;;;;;;;;2026550;29;20079;-52
2023/12/31 02:32:16;;;;;;;19.08;11.10;;;;;;;;;;2026493;29;20363;-52
2023/12/31 02:33:16;;;;;;;18.30;11.05;;;;;;;;;;2025970;29;20056;-53
2023/12/31 02:34:17;;;;;;;16.48;10.13;;;;;;;;;;2026054;29;20036;-52
2023/12/31 02:35:18;;;;;;;15.60;9.93;;;;;;;;;;2018128;29;20540;-53
2023/12/31 02:36:18;;;;;;;16.00;9.88;;;;;;;;;;2010436;29;20053;-53
2023/12/31 02:37:19;;;;;;;19.23;10.65;;;;;;;;;;2018472;29;20040;-52
2023/12/31 02:38:20;;;;;;;15.98;9.57;;;;;;;;;;2026390;29;20044;-53
2023/12/31 02:39:21;;;;;;;15.98;9.68;;;;;;;;;;2018238;29;20044;-54
2023/12/31 02:40:23;;;;;;;15.52;9.25;;;;;;;;;;2018726;29;20482;-54
2023/12/31 02:41:24;;;;;;;16.98;9.65;;;;;;;;;;2026499;29;20043;-53
2023/12/31 02:42:24;;;;;;;18.95;10.52;;;;;;;;;;2026831;29;20028;-52
2023/12/31 02:43:25;;;;;;;17.35;10.13;;;;;;;;;;2026625;29;20044;-52
2023/12/31 02:44:26;;;;;;;15.73;9.68;;;;;;;;;;2026417;29;20064;-54
2023/12/31 02:45:27;;;;;;;17.48;9.93;;;;;;;;;;2018342;29;20123;-54
2023/12/31 02:46:27;;;;;;;15.50;9.50;;;;;;;;;;2017768;29;20044;-53
2023/12/31 02:47:28;;;;;;;15.25;9.60;;;;;;;;;;2018027;29;20068;-52
2023/12/31 02:48:29;;;;;;;15.95;9.20;;;;;;;;;;2017743;29;20065;-53
2023/12/31 02:49:31;;;;;;;15.27;9.52;;;;;;;;;;2017977;29;20044;-52
2023/12/31 02:50:31;;;;;;;15.32;9.07;;;;;;;;;;2018181;29;20513;-52
2023/12/31 02:51:33;;;;;;;12.80;8.00;;;;;;;;;;2018326;29;20128;-53
2023/12/31 02:52:33;;;;;;;13.20;7.45;;;;;;;;;;2018485;29;20359;-53
2023/12/31 02:53:35;;;;;;;14.40;8.90;;;;;;;;;;2017645;29;20053;-52
2023/12/31 02:54:36;;;;;;;15.80;7.95;;;;;;;;;;2018205;29;20037;-53
2023/12/31 02:55:36;;;;;;;14.48;8.30;;;;;;;;;;2025508;29;20059;-52
2023/12/31 02:56:40;;;;;;;13.30;7.55;;;;;;;;;;2026412;29;20483;-53
2023/12/31 02:57:41;;;;;;;13.45;8.32;;;;;;;;;;2018225;29;20041;-51
2023/12/31 02:58:42;;;;;;;12.93;7.22;;;;;;;;;;2017559;29;20060;-52
2023/12/31 02:59:43;;;;;;;13.48;8.07;;;;;;;;;;2010590;29;20049;-53
2023/12/31 03:00:44;;;;;;;12.07;7.30;;;;;;;;;;2010469;29;20524;-53
2023/12/31 03:01:44;;;;;;;11.02;6.57;;;;;;;;;;2018028;29;20414;-53
2023/12/31 03:02:46;;;;;;;10.88;6.75;;;;;;;;;;2017714;29;20540;-53
2023/12/31 03:03:46;;;;;;;13.07;8.07;;;;;;;;;;2018012;29;20363;-53
2023/12/31 03:04:47;;;;;;;12.63;7.78;;;;;;;;;;2026467;29;20032;-53
2023/12/31 03:05:49;;;;;;;16.67;8.10;;;;;;;;;;2026189;29;20048;-54
2023/12/31 03:06:51;;;;;;;10.30;6.60;;;;;;;;;;2025304;29;20055;-52
2023/12/31 03:07:52;;;;;;;13.73;7.18;;;;;;;;;;2026306;29;20044;-52
2023/12/31 03:08:55;;;;;;;12.35;7.20;;;;;;;;;;2026398;29;20473;-53
2023/12/31 03:09:56;;;;;;;12.82;7.55;;;;;;;;;;2026428;29;20036;-53
2023/12/31 03:10:57;;;;;;;11.10;7.07;;;;;;;;;;2025750;29;20052;-54
2023/12/31 03:11:57;;;;;;;11.07;7.45;;;;;;;;;;2026283;29;20041;-53
2023/12/31 03:12:58;;;;;;;13.73;7.93;;;;;;;;;;2026106;29;20409;-53
2023/12/31 03:13:59;;;;;;;11.88;7.32;;;;;;;;;;2018207;29;20055;-53
2023/12/31 03:15:00;;;;;;;11.50;7.05;;;;;;;;;;2018163;29;20029;-53
2023/12/31 03:16:07;;;;;;;12.80;7.72;;;;;;;;;;2026397;29;20489;-53
2023/12/31 03:17:07;;;;;;;11.90;6.90;;;;;;;;;;2025739;29;20457;-53
2023/12/31 03:18:08;;;;;;;13.15;6.45;;;;;;;;;;2026298;29;20040;-52
2023/12/31 03:19:09;;;;;;;13.50;7.57;;;;;;;;;;2017801;29;20055;-53
2023/12/31 03:20:10;;;;;;;13.55;8.65;;;;;;;;;;2010176;29;20072;-52
2023/12/31 03:21:14;;;;;;;13.57;8.07;;;;;;;;;;2009785;29;20054;-52
2023/12/31 03:22:15;;;;;;;14.60;8.38;;;;;;;;;;2010588;29;20038;-53
2023/12/31 03:23:15;;;;;;;14.48;7.72;;;;;;;;;;2010274;29;20041;-53
2023/12/31 03:24:20;;;;;;;12.30;7.90;;;;;;;;;;2018183;29;20067;-52
2023/12/31 03:25:21;;;;;;;13.80;9.23;;;;;;;;;;2018388;29;20048;-53
2023/12/31 03:26:23;;;;;;;15.30;8.75;;;;;;;;;;2025336;29;20056;-53
2023/12/31 03:27:24;;;;;;;13.82;8.88;;;;;;;;;;2017922;29;20045;-53
2023/12/31 03:28:25;;;;;;;14.15;8.75;;;;;;;;;;2017865;29;20533;-53
2023/12/31 03:29:26;;;;;;;13.15;8.75;;;;;;;;;;2026098;29;20032;-52
2023/12/31 03:30:27;;;;;;;11.90;7.82;;;;;;;;;;2026256;29;20055;-53
2023/12/31 03:31:28;;;;;;;18.52;9.13;;;;;;;;;;2025764;29;20048;-52
2023/12/31 03:32:28;;;;;;;14.98;8.43;;;;;;;;;;2017647;29;20561;-52
2023/12/31 03:33:29;;;;;;;13.63;8.45;;;;;;;;;;2017597;29;20071;-52
2023/12/31 03:34:31;;;;;;;14.10;8.75;;;;;;;;;;2026089;29;20032;-53
2023/12/31 03:35:32;;;;;;;13.88;8.40;;;;;;;;;;2025514;29;20139;-53
2023/12/31 03:36:33;;;;;;;13.60;7.53;;;;;;;;;;2025579;29;20128;-52
2023/12/31 03:37:34;;;;;;;12.70;7.93;;;;;;;;;;2026099;29;20041;-53
2023/12/31 03:38:35;;;;;;;13.45;8.30;;;;;;;;;;2026078;29;20458;-52
2023/12/31 03:39:37;;;;;;;12.93;7.68;;;;;;;;;;2026153;29;20043;-52
2023/12/31 03:40:37;;;;;;;12.60;7.32;;;;;;;;;;2017948;29;20405;-53
2023/12/31 03:41:38;;;;;;;10.95;7.40;;;;;;;;;;2009885;29;20140;-52
2023/12/31 03:42:39;;;;;;;13.25;7.88;;;;;;;;;;2017782;29;20528;-52
2023/12/31 03:43:39;;;;;;;13.13;8.05;;;;;;;;;;2026218;29;20044;-52
2023/12/31 03:44:41;;;;;;;14.02;7.70;;;;;;;;;;2026073;29;20043;-53
2023/12/31 03:45:41;;;;;;;12.32;7.82;;;;;;;;;;2026353;29;20040;-52
2023/12/31 03:46:42;;;;;;;14.32;7.93;;;;;;;;;;2026008;29;20032;-52
2023/12/31 03:47:43;;;;;;;11.35;7.55;;;;;;;;;;2025629;29;20613;-52
2023/12/31 03:48:43;;;;;;;10.45;6.95;;;;;;;;;;2026067;29;20401;-54
2023/12/31 03:49:44;;;;;;;16.17;8.45;;;;;;;;;;2025145;29;20497;-53
2023/12/31 03:50:45;;;;;;;13.35;7.32;;;;;;;;;;2025438;29;20056;-53
2023/12/31 03:51:46;;;;;;;14.05;8.30;;;;;;;;;;2017214;29;20140;-53
2023/12/31 03:52:46;;;;;;;12.45;7.40;;;;;;;;;;2017849;29;20051;-52
2023/12/31 03:53:47;;;;;;;12.65;7.93;;;;;;;;;;2026183;29;20028;-53
2023/12/31 03:54:48;;;;;;;12.50;7.68;;;;;;;;;;2025372;29;20064;-52
2023/12/31 03:55:48;;;;;;;11.82;7.63;;;;;;;;;;2017931;29;20041;-53
2023/12/31 03:56:49;;;;;;;12.88;7.10;;;;;;;;;;2017984;29;20439;-53
2023/12/31 03:57:50;;;;;;;12.25;7.20;;;;;;;;;;2025802;29;20041;-53
2023/12/31 03:58:51;;;;;;;11.40;7.43;;;;;;;;;;2026006;29;20032;-53
2023/12/31 03:59:52;;;;;;;11.88;7.28;;;;;;;;;;2025672;29;20397;-53
2023/12/31 04:00:52;;;;;;;12.75;7.40;;;;;;;;;;2025578;29;20112;-53
2023/12/31 04:01:56;;;;;;;12.38;7.15;;;;;;;;;;2026312;29;20363;-53
2023/12/31 04:02:57;;;;;;;12.52;7.03;;;;;;;;;;2017436;29;20049;-53
2023/12/31 04:03:58;;;;;;;11.05;6.82;;;;;;;;;;2017825;29;20422;-52
2023/12/31 04:04:59;;;;;;;10.05;6.22;;;;;;;;;;2017652;29;20056;-52
2023/12/31 04:06:00;;;;;;;10.55;6.78;;;;;;;;;;2017806;29;20489;-52
2023/12/31 04:07:00;;;;;;;10.43;6.72;;;;;;;;;;2026260;29;20033;-52
2023/12/31 04:08:01;;;;;;;12.80;6.50;;;;;;;;;;2025030;29;20044;-52
2023/12/31 04:09:02;;;;;;;10.23;6.55;;;;;;;;;;2026078;29;20131;-52
2023/12/31 04:10:03;;;;;;;11.02;6.57;;;;;;;;;;2025633;29;20056;-53
2023/12/31 04:11:05;;;;;;;13.43;6.22;;;;;;;;;;2026141;29;20040;-52
2023/12/31 04:12:06;;;;;;;9.95;6.55;;;;;;;;;;2025295;29;20053;-53
2023/12/31 04:13:06;;;;;;;10.55;6.38;;;;;;;;;;2017616;29;20088;-52
2023/12/31 04:14:07;;;;;;;11.23;6.97;;;;;;;;;;2017340;29;20049;-53
2023/12/31 04:15:08;;;;;;;10.10;6.30;;;;;;;;;;2017866;29;20073;-53
2023/12/31 04:16:09;;;;;;;10.88;6.53;;;;;;;;;;2009529;29;20053;-53
2023/12/31 04:17:09;;;;;;;10.98;6.63;;;;;;;;;;2009701;29;20493;-53
2023/12/31 04:18:10;;;;;;;9.65;6.15;;;;;;;;;;2009628;29;20061;-53
2023/12/31 04:19:14;;;;;;;11.57;6.90;;;;;;;;;;2017362;29;20061;-52
2023/12/31 04:20:14;;;;;;;10.48;6.13;;;;;;;;;;2017899;29;20052;-53
2023/12/31 04:21:15;;;;;;;9.80;5.65;;;;;;;;;;2009966;29;20506;-53
2023/12/31 04:22:16;;;;;;;8.52;5.15;;;;;;;;;;2016946;29;20041;-52
2023/12/31 04:23:17;;;;;;;9.98;5.72;;;;;;;;;;2010132;29;20049;-53
2023/12/31 04:24:18;;;;;;;9.23;5.68;;;;;;;;;;2017788;29;20418;-53
2023/12/31 04:25:18;;;;;;;9.02;5.45;;;;;;;;;;2027505;29;20029;-52
2023/12/31 04:26:19;;;;;;;10.48;5.00;;;;;;;;;;2026856;29;20049;-53
2023/12/31 04:27:20;;;;;;;11.02;5.78;;;;;;;;;;2027027;29;20070;-52
2023/12/31 04:28:21;;;;;;;9.10;5.00;;;;;;;;;;2018950;29;20048;-53
2023/12/31 04:29:22;;;;;;;10.88;6.05;;;;;;;;;;2019088;29;20036;-53
2023/12/31 04:30:22;;;;;;;8.77;5.25;;;;;;;;;;2027415;29;20569;-52
2023/12/31 04:31:26;;;;;;;8.88;5.80;;;;;;;;;;2026490;29;20044;-52
2023/12/31 04:32:27;;;;;;;11.77;5.80;;;;;;;;;;2025856;29;20048;-53
2023/12/31 04:33:27;;;;;;;9.40;5.68;;;;;;;;;;2027472;29;20466;-53
2023/12/31 04:34:28;;;;;;;11.32;5.55;;;;;;;;;;2019110;29;20136;-52
2023/12/31 04:35:29;;;;;;;9.25;5.60;;;;;;;;;;2018994;29;20041;-52
2023/12/31 04:36:29;;;;;;;9.48;5.63;;;;;;;;;;2019415;29;20044;-53
2023/12/31 04:37:30;;;;;;;10.00;6.15;;;;;;;;;;2011288;29;20057;-52
2023/12/31 04:38:32;;;;;;;10.75;6.10;;;;;;;;;;2019377;29;20041;-52
2023/12/31 04:39:33;;;;;;;11.73;6.40;;;;;;;;;;2019296;29;20036;-52
2023/12/31 04:40:35;;;;;;;11.95;6.95;;;;;;;;;;2018446;29;20048;-52
2023/12/31 04:41:38;;;;;;;11.48;6.88;;;;;;;;;;2019267;29;20474;-53
2023/12/31 04:42:38;;;;;;;10.68;6.40;;;;;;;;;;2027350;29;20033;-54
2023/12/31 04:43:39;;;;;;;9.98;6.60;;;;;;;;;;2027385;29;20032;-53
2023/12/31 04:44:40;;;;;;;11.02;7.32;;;;;;;;;;2027333;29;20040;-53
2023/12/31 04:45:41;;;;;;;10.98;7.20;;;;;;;;;;2026723;29;20056;-52
2023/12/31 04:46:42;;;;;;;12.13;7.38;;;;;;;;;;2026689;29;20072;-52
2023/12/31 04:47:42;;;;;;;11.52;6.80;;;;;;;;;;2027418;29;20040;-53
2023/12/31 04:48:43;;;;;;;13.15;7.50;;;;;;;;;;2026338;29;20076;-52
2023/12/31 04:49:44;;;;;;;11.85;7.50;;;;;;;;;;2027318;29;20032;-54
2023/12/31 04:50:44;;;;;;;12.32;7.28;;;;;;;;;;2027280;29;20041;-52
2023/12/31 04:51:45;;;;;;;13.05;8.13;;;;;;;;;;2018705;29;20072;-53
2023/12/31 04:52:46;;;;;;;13.20;6.97;;;;;;;;;;2010721;29;20054;-53
2023/12/31 04:53:47;;;;;;;12.13;7.85;;;;;;;;;;2018844;29;20371;-53
2023/12/31 04:54:47;;;;;;;13.63;8.23;;;;;;;;;;2027227;29;20492;-53
2023/12/31 04:55:49;;;;;;;10.70;7.03;;;;;;;;;;2026662;29;20044;-54
2023/12/31 04:56:50;;;;;;;12.70;7.72;;;;;;;;;;2026677;29;20052;-53
2023/12/31 04:57:50;;;;;;;11.77;7.43;;;;;;;;;;2018986;29;20052;-53
2023/12/31 04:58:52;;;;;;;13.68;8.30;;;;;;;;;;2011538;29;20049;-53
2023/12/31 04:59:52;;;;;;;12.90;7.40;;;;;;;;;;2011387;29;20052;-52
2023/12/31 05:00:53;;;;;;;10.98;7.22;;;;;;;;;;2019481;29;20039;-53
2023/12/31 05:01:55;;;;;;;12.75;7.57;;;;;;;;;;2027784;29;20041;-52
2023/12/31 05:02:55;;;;;;;11.43;6.57;;;;;;;;;;2028111;29;20048;-52
2023/12/31 05:03:56;;;;;;;10.52;6.57;;;;;;;;;;2028226;29;20111;-52
2023/12/31 05:04:57;;;;;;;9.95;6.80;;;;;;;;;;2028269;29;20057;-57
2023/12/31 05:05:58;;;;;;;11.60;7.28;;;;;;;;;;2027511;29;20381;-53
2023/12/31 05:06:59;;;;;;;11.15;7.00;;;;;;;;;;2027208;29;20040;-53
2023/12/31 05:08:00;;;;;;;11.55;7.35;;;;;;;;;;2027273;29;20028;-53
2023/12/31 05:09:03;;;;;;;12.68;6.88;;;;;;;;;;2026750;29;20497;-53
2023/12/31 05:10:04;;;;;;;10.70;7.22;;;;;;;;;;2027575;29;20052;-53
2023/12/31 05:11:05;;;;;;;9.98;6.90;;;;;;;;;;2027254;29;20036;-52
2023/12/31 05:12:06;;;;;;;12.05;7.15;;;;;;;;;;2018161;29;20057;-52
2023/12/31 05:13:07;;;;;;;11.85;7.53;;;;;;;;;;2018989;29;20029;-52
2023/12/31 05:14:08;;;;;;;15.07;7.93;;;;;;;;;;2026473;29;20380;-52
2023/12/31 05:15:08;;;;;;;11.68;7.18;;;;;;;;;;2027270;29;20040;-53
2023/12/31 05:16:15;;;;;;;11.73;7.63;;;;;;;;;;2026841;29;20055;-52
2023/12/31 05:17:16;;;;;;;11.00;7.40;;;;;;;;;;2027487;29;20044;-52
2023/12/31 05:18:17;;;;;;;11.32;7.55;;;;;;;;;;2027210;29;20065;-53
2023/12/31 05:19:18;;;;;;;11.93;7.78;;;;;;;;;;2027458;29;20032;-52
2023/12/31 05:20:18;;;;;;;10.43;6.65;;;;;;;;;;2027199;29;20036;-53
2023/12/31 05:21:19;;;;;;;12.43;6.72;;;;;;;;;;2026530;29;20051;-53
2023/12/31 05:22:20;;;;;;;10.40;6.70;;;;;;;;;;2026736;29;20037;-54
2023/12/31 05:23:21;;;;;;;11.88;7.25;;;;;;;;;;2026948;29;20036;-52
2023/12/31 05:24:21;;;;;;;11.02;6.88;;;;;;;;;;2026504;29;20053;-52
2023/12/31 05:25:22;;;;;;;10.43;6.78;;;;;;;;;;2027002;29;20036;-53
2023/12/31 05:26:23;;;;;;;12.00;7.25;;;;;;;;;;2027047;29;20035;-53
2023/12/31 05:27:23;;;;;;;11.40;6.63;;;;;;;;;;2027005;29;20389;-54
2023/12/31 05:28:24;;;;;;;9.25;6.25;;;;;;;;;;2027010;29;20500;-53
2023/12/31 05:29:25;;;;;;;10.82;6.85;;;;;;;;;;2026146;29;20056;-53
2023/12/31 05:30:25;;;;;;;12.93;7.05;;;;;;;;;;2027130;29;20049;-53
2023/12/31 05:31:26;;;;;;;9.52;6.13;;;;;;;;;;2026674;29;20045;-52
2023/12/31 05:32:27;;;;;;;9.20;5.97;;;;;;;;;;2026990;29;20161;-52
2023/12/31 05:33:28;;;;;;;8.70;6.40;;;;;;;;;;2027092;29;20040;-53
2023/12/31 05:34:28;;;;;;;9.63;6.13;;;;;;;;;;2027167;29;20036;-53
2023/12/31 05:35:29;;;;;;;12.07;6.75;;;;;;;;;;2026851;29;20385;-53
2023/12/31 05:36:30;;;;;;;9.60;6.15;;;;;;;;;;2026147;29;20060;-53
2023/12/31 05:37:30;;;;;;;10.65;6.55;;;;;;;;;;2027182;29;20040;-54
2023/12/31 05:38:31;;;;;;;11.50;6.50;;;;;;;;;;2026930;29;20040;-53
2023/12/31 05:39:32;;;;;;;12.18;6.32;;;;;;;;;;2027028;29;20044;-53
2023/12/31 05:40:33;;;;;;;10.95;6.78;;;;;;;;;;2026614;29;20048;-53
2023/12/31 05:41:33;;;;;;;11.23;6.10;;;;;;;;;;2027009;29;20485;-53
2023/12/31 05:42:34;;;;;;;13.30;8.00;;;;;;;;;;2026973;29;20028;-54
2023/12/31 05:43:35;;;;;;;12.20;6.93;;;;;;;;;;2026994;29;20067;-53
2023/12/31 05:44:35;;;;;;;11.00;6.40;;;;;;;;;;2026871;29;20036;-52
2023/12/31 05:45:37;;;;;;;10.10;6.88;;;;;;;;;;2027078;29;20032;-53
2023/12/31 05:46:37;;;;;;;10.13;6.57;;;;;;;;;;2025736;29;20413;-53
2023/12/31 05:47:38;;;;;;;11.32;7.50;;;;;;;;;;2026861;29;20047;-53
2023/12/31 05:48:42;;;;;;;11.05;7.30;;;;;;;;;;2026805;29;20044;-52
2023/12/31 05:49:42;;;;;;;10.85;6.90;;;;;;;;;;2018567;29;20064;-52
2023/12/31 05:50:43;;;;;;;11.00;7.13;;;;;;;;;;2018625;29;20041;-52
2023/12/31 05:51:44;;;;;;;10.07;6.55;;;;;;;;;;2026518;29;20048;-53
2023/12/31 05:52:45;;;;;;;10.90;6.47;;;;;;;;;;2026961;29;20474;-52
2023/12/31 05:53:46;;;;;;;11.95;6.70;;;;;;;;;;2018520;29;20053;-54
2023/12/31 05:54:47;;;;;;;10.35;6.53;;;;;;;;;;2018281;29;20040;-53
2023/12/31 05:55:47;;;;;;;8.75;6.28;;;;;;;;;;2026802;29;20379;-52
2023/12/31 05:56:48;;;;;;;10.95;6.55;;;;;;;;;;2026694;29;20478;-53
2023/12/31 05:57:49;;;;;;;10.52;6.63;;;;;;;;;;2026873;29;20048;-53
2023/12/31 05:58:50;;;;;;;10.93;6.88;;;;;;;;;;2026903;29;20043;-52